sensor_id;sensor_type;location;lat;lon;timestamp;P1;durP1;ratioP1;P2;durP2;ratioP2
7667;SDS011;3876;42.204;24.686;2022-08-14T00:00:41;8.37;;;7.60;;
7667;SDS011;3876;42.204;24.686;2022-08-14T00:03:16;8.20;;;7.63;;
7667;SDS011;3876;42.204;24.686;2022-08-14T00:05:44;9.07;;;8.47;;
7667;SDS011;3876;42.204;24.686;2022-08-14T00:08:11;8.27;;;7.67;;
7667;SDS011;3876;42.204;24.686;2022-08-14T00:10:38;8.73;;;8.23;;
7667;SDS011;3876;42.204;24.686;2022-08-14T00:13:04;9.63;;;7.70;;
7667;SDS011;3876;42.204;24.686;2022-08-14T00:15:34;7.87;;;7.37;;
7667;SDS011;3876;42.204;24.686;2022-08-14T00:18:04;9.00;;;8.23;;
7667;SDS011;3876;42.204;24.686;2022-08-14T00:20:32;7.77;;;7.27;;
7667;SDS011;3876;42.204;24.686;2022-08-14T00:23:01;8.33;;;7.73;;
7667;SDS011;3876;42.204;24.686;2022-08-14T00:25:29;7.73;;;7.17;;
7667;SDS011;3876;42.204;24.686;2022-08-14T00:27:56;7.43;;;7.03;;
7667;SDS011;3876;42.204;24.686;2022-08-14T00:30:23;7.60;;;7.20;;
7667;SDS011;3876;42.204;24.686;2022-08-14T00:32:52;8.70;;;8.20;;
7667;SDS011;3876;42.204;24.686;2022-08-14T00:35:18;8.33;;;7.83;;
7667;SDS011;3876;42.204;24.686;2022-08-14T00:37:45;8.00;;;7.50;;
7667;SDS011;3876;42.204;24.686;2022-08-14T00:40:15;7.70;;;7.30;;
7667;SDS011;3876;42.204;24.686;2022-08-14T00:42:43;8.50;;;7.87;;
7667;SDS011;3876;42.204;24.686;2022-08-14T00:45:12;8.33;;;7.67;;
7667;SDS011;3876;42.204;24.686;2022-08-14T00:47:40;8.00;;;7.37;;
7667;SDS011;3876;42.204;24.686;2022-08-14T00:50:10;7.90;;;7.40;;
7667;SDS011;3876;42.204;24.686;2022-08-14T00:52:38;7.80;;;7.30;;
7667;SDS011;3876;42.204;24.686;2022-08-14T00:55:05;8.13;;;7.53;;
7667;SDS011;3876;42.204;24.686;2022-08-14T00:57:34;8.50;;;7.90;;
7667;SDS011;3876;42.204;24.686;2022-08-14T01:00:04;8.03;;;7.53;;
7667;SDS011;3876;42.204;24.686;2022-08-14T01:02:32;7.37;;;6.80;;
7667;SDS011;3876;42.204;24.686;2022-08-14T01:05:02;7.90;;;7.27;;
7667;SDS011;3876;42.204;24.686;2022-08-14T01:07:33;7.77;;;7.37;;
7667;SDS011;3876;42.204;24.686;2022-08-14T01:10:00;9.17;;;7.40;;
7667;SDS011;3876;42.204;24.686;2022-08-14T01:12:30;7.93;;;7.53;;
7667;SDS011;3876;42.204;24.686;2022-08-14T01:14:58;8.97;;;8.37;;
7667;SDS011;3876;42.204;24.686;2022-08-14T01:17:28;8.07;;;7.47;;
7667;SDS011;3876;42.204;24.686;2022-08-14T01:20:10;8.33;;;7.50;;
7667;SDS011;3876;42.204;24.686;2022-08-14T01:22:56;8.20;;;7.67;;
7667;SDS011;3876;42.204;24.686;2022-08-14T01:25:23;9.13;;;8.43;;
7667;SDS011;3876;42.204;24.686;2022-08-14T01:27:49;8.97;;;8.10;;
7667;SDS011;3876;42.204;24.686;2022-08-14T01:30:19;8.03;;;7.37;;
7667;SDS011;3876;42.204;24.686;2022-08-14T01:32:48;9.00;;;8.27;;
7667;SDS011;3876;42.204;24.686;2022-08-14T01:35:15;9.33;;;8.73;;
7667;SDS011;3876;42.204;24.686;2022-08-14T01:37:42;7.30;;;6.90;;
7667;SDS011;3876;42.204;24.686;2022-08-14T01:40:11;7.57;;;7.17;;
7667;SDS011;3876;42.204;24.686;2022-08-14T01:42:40;8.97;;;8.27;;
7667;SDS011;3876;42.204;24.686;2022-08-14T01:45:07;8.57;;;8.03;;
7667;SDS011;3876;42.204;24.686;2022-08-14T01:47:37;8.40;;;7.80;;
7667;SDS011;3876;42.204;24.686;2022-08-14T01:50:04;8.97;;;8.37;;
7667;SDS011;3876;42.204;24.686;2022-08-14T01:52:32;8.57;;;7.73;;
7667;SDS011;3876;42.204;24.686;2022-08-14T01:55:00;9.30;;;8.60;;
7667;SDS011;3876;42.204;24.686;2022-08-14T01:57:29;15.43;;;7.90;;
7667;SDS011;3876;42.204;24.686;2022-08-14T01:59:56;9.13;;;8.60;;
7667;SDS011;3876;42.204;24.686;2022-08-14T02:02:23;8.97;;;8.37;;
7667;SDS011;3876;42.204;24.686;2022-08-14T02:04:49;10.80;;;9.80;;
7667;SDS011;3876;42.204;24.686;2022-08-14T02:07:16;10.00;;;9.17;;
7667;SDS011;3876;42.204;24.686;2022-08-14T02:09:44;9.60;;;8.93;;
7667;SDS011;3876;42.204;24.686;2022-08-14T02:12:11;7.80;;;7.40;;
7667;SDS011;3876;42.204;24.686;2022-08-14T02:14:39;9.30;;;8.60;;
7667;SDS011;3876;42.204;24.686;2022-08-14T02:17:06;8.87;;;8.37;;
7667;SDS011;3876;42.204;24.686;2022-08-14T02:19:33;9.23;;;8.57;;
7667;SDS011;3876;42.204;24.686;2022-08-14T02:22:00;9.23;;;8.53;;
7667;SDS011;3876;42.204;24.686;2022-08-14T02:24:28;8.67;;;7.97;;
7667;SDS011;3876;42.204;24.686;2022-08-14T02:26:56;9.23;;;8.30;;
7667;SDS011;3876;42.204;24.686;2022-08-14T02:29:25;9.27;;;8.67;;
7667;SDS011;3876;42.204;24.686;2022-08-14T02:31:56;8.30;;;7.70;;
7667;SDS011;3876;42.204;24.686;2022-08-14T02:34:24;9.27;;;8.67;;
7667;SDS011;3876;42.204;24.686;2022-08-14T02:36:54;9.17;;;8.67;;
7667;SDS011;3876;42.204;24.686;2022-08-14T02:39:23;9.80;;;8.97;;
7667;SDS011;3876;42.204;24.686;2022-08-14T02:41:51;9.83;;;9.03;;
7667;SDS011;3876;42.204;24.686;2022-08-14T02:44:18;8.80;;;8.30;;
7667;SDS011;3876;42.204;24.686;2022-08-14T02:46:48;9.93;;;9.30;;
7667;SDS011;3876;42.204;24.686;2022-08-14T02:49:17;9.67;;;8.80;;
7667;SDS011;3876;42.204;24.686;2022-08-14T02:51:46;10.27;;;9.47;;
7667;SDS011;3876;42.204;24.686;2022-08-14T02:54:13;8.77;;;7.97;;
7667;SDS011;3876;42.204;24.686;2022-08-14T02:56:40;9.03;;;8.43;;
7667;SDS011;3876;42.204;24.686;2022-08-14T02:59:07;13.93;;;9.37;;
7667;SDS011;3876;42.204;24.686;2022-08-14T03:01:38;10.30;;;9.23;;
7667;SDS011;3876;42.204;24.686;2022-08-14T03:04:05;8.63;;;8.13;;
7667;SDS011;3876;42.204;24.686;2022-08-14T03:06:36;10.17;;;9.27;;
7667;SDS011;3876;42.204;24.686;2022-08-14T03:09:07;10.07;;;9.37;;
7667;SDS011;3876;42.204;24.686;2022-08-14T03:11:34;9.10;;;8.40;;
7667;SDS011;3876;42.204;24.686;2022-08-14T03:14:02;10.10;;;9.10;;
7667;SDS011;3876;42.204;24.686;2022-08-14T03:16:29;16.47;;;9.73;;
7667;SDS011;3876;42.204;24.686;2022-08-14T03:19:00;9.47;;;8.80;;
7667;SDS011;3876;42.204;24.686;2022-08-14T03:21:29;11.47;;;9.10;;
7667;SDS011;3876;42.204;24.686;2022-08-14T03:23:58;9.17;;;8.57;;
7667;SDS011;3876;42.204;24.686;2022-08-14T03:26:34;9.67;;;8.93;;
7667;SDS011;3876;42.204;24.686;2022-08-14T03:29:01;9.80;;;9.10;;
7667;SDS011;3876;42.204;24.686;2022-08-14T03:31:29;9.90;;;9.07;;
7667;SDS011;3876;42.204;24.686;2022-08-14T03:33:56;9.30;;;8.77;;
7667;SDS011;3876;42.204;24.686;2022-08-14T03:36:24;10.73;;;9.87;;
7667;SDS011;3876;42.204;24.686;2022-08-14T03:38:51;10.50;;;9.57;;
7667;SDS011;3876;42.204;24.686;2022-08-14T03:41:23;10.20;;;9.33;;
7667;SDS011;3876;42.204;24.686;2022-08-14T03:43:52;10.03;;;9.23;;
7667;SDS011;3876;42.204;24.686;2022-08-14T03:46:20;10.57;;;9.57;;
7667;SDS011;3876;42.204;24.686;2022-08-14T03:48:47;12.03;;;9.77;;
7667;SDS011;3876;42.204;24.686;2022-08-14T03:51:14;10.20;;;9.40;;
7667;SDS011;3876;42.204;24.686;2022-08-14T03:53:42;10.53;;;9.63;;
7667;SDS011;3876;42.204;24.686;2022-08-14T03:56:11;12.23;;;11.03;;
7667;SDS011;3876;42.204;24.686;2022-08-14T03:58:41;10.37;;;9.57;;
7667;SDS011;3876;42.204;24.686;2022-08-14T04:01:09;9.63;;;8.93;;
7667;SDS011;3876;42.204;24.686;2022-08-14T04:03:36;9.60;;;8.83;;
7667;SDS011;3876;42.204;24.686;2022-08-14T04:06:03;10.60;;;9.50;;
7667;SDS011;3876;42.204;24.686;2022-08-14T04:08:33;11.67;;;10.70;;
7667;SDS011;3876;42.204;24.686;2022-08-14T04:11:05;10.47;;;9.57;;
7667;SDS011;3876;42.204;24.686;2022-08-14T04:13:33;10.93;;;10.00;;
7667;SDS011;3876;42.204;24.686;2022-08-14T04:16:09;11.63;;;10.67;;
7667;SDS011;3876;42.204;24.686;2022-08-14T04:18:37;11.20;;;10.23;;
7667;SDS011;3876;42.204;24.686;2022-08-14T04:21:05;13.10;;;9.93;;
7667;SDS011;3876;42.204;24.686;2022-08-14T04:23:33;10.17;;;9.10;;
7667;SDS011;3876;42.204;24.686;2022-08-14T04:26:00;10.40;;;9.53;;
7667;SDS011;3876;42.204;24.686;2022-08-14T04:28:28;9.67;;;9.03;;
7667;SDS011;3876;42.204;24.686;2022-08-14T04:30:56;10.07;;;9.10;;
7667;SDS011;3876;42.204;24.686;2022-08-14T04:33:24;9.00;;;8.30;;
7667;SDS011;3876;42.204;24.686;2022-08-14T04:35:53;8.60;;;7.87;;
7667;SDS011;3876;42.204;24.686;2022-08-14T04:38:20;8.57;;;7.90;;
7667;SDS011;3876;42.204;24.686;2022-08-14T04:41:04;8.93;;;8.33;;
7667;SDS011;3876;42.204;24.686;2022-08-14T04:43:49;8.17;;;7.53;;
7667;SDS011;3876;42.204;24.686;2022-08-14T04:46:17;7.77;;;7.27;;
7667;SDS011;3876;42.204;24.686;2022-08-14T04:48:46;8.27;;;7.67;;
7667;SDS011;3876;42.204;24.686;2022-08-14T04:51:13;7.77;;;6.87;;
7667;SDS011;3876;42.204;24.686;2022-08-14T04:53:42;8.40;;;7.53;;
7667;SDS011;3876;42.204;24.686;2022-08-14T04:56:11;8.23;;;7.73;;
7667;SDS011;3876;42.204;24.686;2022-08-14T04:58:39;8.33;;;7.73;;
7667;SDS011;3876;42.204;24.686;2022-08-14T05:01:08;9.70;;;8.80;;
7667;SDS011;3876;42.204;24.686;2022-08-14T05:03:39;9.10;;;8.33;;
7667;SDS011;3876;42.204;24.686;2022-08-14T05:06:09;10.50;;;9.70;;
7667;SDS011;3876;42.204;24.686;2022-08-14T05:08:37;11.50;;;10.10;;
7667;SDS011;3876;42.204;24.686;2022-08-14T05:11:07;10.70;;;10.00;;
7667;SDS011;3876;42.204;24.686;2022-08-14T05:13:34;10.43;;;9.63;;
7667;SDS011;3876;42.204;24.686;2022-08-14T05:16:03;10.27;;;9.47;;
7667;SDS011;3876;42.204;24.686;2022-08-14T05:18:32;10.50;;;9.53;;
7667;SDS011;3876;42.204;24.686;2022-08-14T05:21:01;10.33;;;9.53;;
7667;SDS011;3876;42.204;24.686;2022-08-14T05:23:32;10.07;;;9.27;;
7667;SDS011;3876;42.204;24.686;2022-08-14T05:26:00;11.30;;;10.37;;
7667;SDS011;3876;42.204;24.686;2022-08-14T05:28:29;10.37;;;9.57;;
7667;SDS011;3876;42.204;24.686;2022-08-14T05:31:00;14.80;;;11.50;;
7667;SDS011;3876;42.204;24.686;2022-08-14T05:33:28;9.60;;;8.93;;
7667;SDS011;3876;42.204;24.686;2022-08-14T05:35:59;11.50;;;10.40;;
7667;SDS011;3876;42.204;24.686;2022-08-14T05:38:28;10.97;;;9.83;;
7667;SDS011;3876;42.204;24.686;2022-08-14T05:40:59;9.47;;;8.83;;
7667;SDS011;3876;42.204;24.686;2022-08-14T05:43:27;10.53;;;9.50;;
7667;SDS011;3876;42.204;24.686;2022-08-14T05:45:55;9.10;;;8.23;;
7667;SDS011;3876;42.204;24.686;2022-08-14T05:48:22;9.33;;;8.13;;
7667;SDS011;3876;42.204;24.686;2022-08-14T05:50:49;10.90;;;9.63;;
7667;SDS011;3876;42.204;24.686;2022-08-14T05:53:18;9.73;;;8.93;;
7667;SDS011;3876;42.204;24.686;2022-08-14T05:55:45;9.43;;;8.57;;
7667;SDS011;3876;42.204;24.686;2022-08-14T05:58:14;9.60;;;8.67;;
7667;SDS011;3876;42.204;24.686;2022-08-14T06:00:41;9.23;;;8.53;;
7667;SDS011;3876;42.204;24.686;2022-08-14T06:03:10;10.60;;;9.70;;
7667;SDS011;3876;42.204;24.686;2022-08-14T06:05:40;9.13;;;8.43;;
7667;SDS011;3876;42.204;24.686;2022-08-14T06:08:12;9.97;;;9.23;;
7667;SDS011;3876;42.204;24.686;2022-08-14T06:10:40;11.23;;;10.30;;
7667;SDS011;3876;42.204;24.686;2022-08-14T06:13:07;10.90;;;9.43;;
7667;SDS011;3876;42.204;24.686;2022-08-14T06:15:36;9.90;;;8.97;;
7667;SDS011;3876;42.204;24.686;2022-08-14T06:18:03;10.77;;;9.67;;
7667;SDS011;3876;42.204;24.686;2022-08-14T06:20:30;10.17;;;9.17;;
7667;SDS011;3876;42.204;24.686;2022-08-14T06:22:57;11.80;;;10.70;;
7667;SDS011;3876;42.204;24.686;2022-08-14T06:25:24;11.70;;;10.40;;
7667;SDS011;3876;42.204;24.686;2022-08-14T06:27:52;11.27;;;9.63;;
7667;SDS011;3876;42.204;24.686;2022-08-14T06:30:20;10.70;;;9.80;;
7667;SDS011;3876;42.204;24.686;2022-08-14T06:32:49;11.07;;;10.07;;
7667;SDS011;3876;42.204;24.686;2022-08-14T06:35:16;9.40;;;8.90;;
7667;SDS011;3876;42.204;24.686;2022-08-14T06:37:45;9.83;;;9.13;;
7667;SDS011;3876;42.204;24.686;2022-08-14T06:40:16;10.57;;;9.77;;
7667;SDS011;3876;42.204;24.686;2022-08-14T06:42:45;11.83;;;10.87;;
7667;SDS011;3876;42.204;24.686;2022-08-14T06:45:12;10.67;;;9.77;;
7667;SDS011;3876;42.204;24.686;2022-08-14T06:47:40;11.47;;;10.43;;
7667;SDS011;3876;42.204;24.686;2022-08-14T06:50:10;11.03;;;9.97;;
7667;SDS011;3876;42.204;24.686;2022-08-14T06:52:39;10.87;;;9.90;;
7667;SDS011;3876;42.204;24.686;2022-08-14T06:55:07;10.30;;;9.30;;
7667;SDS011;3876;42.204;24.686;2022-08-14T06:57:35;12.67;;;11.50;;
7667;SDS011;3876;42.204;24.686;2022-08-14T07:00:04;11.30;;;10.40;;
7667;SDS011;3876;42.204;24.686;2022-08-14T07:02:33;12.57;;;11.47;;
7667;SDS011;3876;42.204;24.686;2022-08-14T07:05:18;11.90;;;10.90;;
7667;SDS011;3876;42.204;24.686;2022-08-14T07:08:03;9.60;;;8.80;;
7667;SDS011;3876;42.204;24.686;2022-08-14T07:10:30;18.37;;;10.40;;
7667;SDS011;3876;42.204;24.686;2022-08-14T07:12:57;10.70;;;9.73;;
7667;SDS011;3876;42.204;24.686;2022-08-14T07:15:24;9.63;;;8.93;;
7667;SDS011;3876;42.204;24.686;2022-08-14T07:17:51;8.97;;;8.40;;
7667;SDS011;3876;42.204;24.686;2022-08-14T07:20:19;9.77;;;9.07;;
7667;SDS011;3876;42.204;24.686;2022-08-14T07:22:46;9.27;;;8.73;;
7667;SDS011;3876;42.204;24.686;2022-08-14T07:25:13;9.57;;;8.67;;
7667;SDS011;3876;42.204;24.686;2022-08-14T07:27:40;11.60;;;10.33;;
7667;SDS011;3876;42.204;24.686;2022-08-14T07:30:08;9.20;;;8.47;;
7667;SDS011;3876;42.204;24.686;2022-08-14T07:32:36;8.80;;;8.10;;
7667;SDS011;3876;42.204;24.686;2022-08-14T07:35:03;8.97;;;8.17;;
7667;SDS011;3876;42.204;24.686;2022-08-14T07:37:32;8.13;;;7.53;;
7667;SDS011;3876;42.204;24.686;2022-08-14T07:39:59;8.83;;;8.23;;
7667;SDS011;3876;42.204;24.686;2022-08-14T07:42:26;8.43;;;7.93;;
7667;SDS011;3876;42.204;24.686;2022-08-14T07:44:56;8.60;;;8.00;;
7667;SDS011;3876;42.204;24.686;2022-08-14T07:47:23;8.97;;;8.27;;
7667;SDS011;3876;42.204;24.686;2022-08-14T07:49:52;8.30;;;7.70;;
7667;SDS011;3876;42.204;24.686;2022-08-14T07:52:24;8.50;;;7.80;;
7667;SDS011;3876;42.204;24.686;2022-08-14T07:54:53;9.53;;;8.87;;
7667;SDS011;3876;42.204;24.686;2022-08-14T07:57:20;9.30;;;8.20;;
7667;SDS011;3876;42.204;24.686;2022-08-14T07:59:47;10.77;;;8.80;;
7667;SDS011;3876;42.204;24.686;2022-08-14T08:02:14;9.80;;;9.13;;
7667;SDS011;3876;42.204;24.686;2022-08-14T08:04:43;9.90;;;9.13;;
7667;SDS011;3876;42.204;24.686;2022-08-14T08:07:11;10.53;;;9.10;;
7667;SDS011;3876;42.204;24.686;2022-08-14T08:09:40;10.77;;;9.70;;
7667;SDS011;3876;42.204;24.686;2022-08-14T08:12:16;9.77;;;8.87;;
7667;SDS011;3876;42.204;24.686;2022-08-14T08:14:45;10.47;;;9.37;;
7667;SDS011;3876;42.204;24.686;2022-08-14T08:17:16;11.63;;;9.40;;
7667;SDS011;3876;42.204;24.686;2022-08-14T08:19:44;12.07;;;9.10;;
7667;SDS011;3876;42.204;24.686;2022-08-14T08:22:11;10.20;;;9.17;;
7667;SDS011;3876;42.204;24.686;2022-08-14T08:24:38;10.27;;;9.23;;
7667;SDS011;3876;42.204;24.686;2022-08-14T08:27:12;12.63;;;9.87;;
7667;SDS011;3876;42.204;24.686;2022-08-14T08:29:41;11.10;;;10.00;;
7667;SDS011;3876;42.204;24.686;2022-08-14T08:32:08;10.30;;;9.40;;
7667;SDS011;3876;42.204;24.686;2022-08-14T08:34:45;10.97;;;10.00;;
7667;SDS011;3876;42.204;24.686;2022-08-14T08:37:12;11.47;;;9.03;;
7667;SDS011;3876;42.204;24.686;2022-08-14T08:39:43;8.63;;;7.93;;
7667;SDS011;3876;42.204;24.686;2022-08-14T08:42:11;11.17;;;8.00;;
7667;SDS011;3876;42.204;24.686;2022-08-14T08:44:37;10.13;;;8.60;;
7667;SDS011;3876;42.204;24.686;2022-08-14T08:47:06;11.43;;;8.67;;
7667;SDS011;3876;42.204;24.686;2022-08-14T08:49:36;9.13;;;8.23;;
7667;SDS011;3876;42.204;24.686;2022-08-14T08:52:06;7.93;;;7.23;;
7667;SDS011;3876;42.204;24.686;2022-08-14T08:54:33;8.93;;;8.20;;
7667;SDS011;3876;42.204;24.686;2022-08-14T08:57:08;9.93;;;8.80;;
7667;SDS011;3876;42.204;24.686;2022-08-14T08:59:37;10.13;;;8.03;;
7667;SDS011;3876;42.204;24.686;2022-08-14T09:02:04;10.73;;;9.83;;
7667;SDS011;3876;42.204;24.686;2022-08-14T09:04:35;13.70;;;12.40;;
7667;SDS011;3876;42.204;24.686;2022-08-14T09:07:03;21.40;;;19.17;;
7667;SDS011;3876;42.204;24.686;2022-08-14T09:09:31;15.47;;;13.87;;
7667;SDS011;3876;42.204;24.686;2022-08-14T09:11:59;15.07;;;13.87;;
7667;SDS011;3876;42.204;24.686;2022-08-14T09:14:28;19.67;;;17.97;;
7667;SDS011;3876;42.204;24.686;2022-08-14T09:16:56;15.70;;;14.20;;
7667;SDS011;3876;42.204;24.686;2022-08-14T09:19:25;15.53;;;14.03;;
7667;SDS011;3876;42.204;24.686;2022-08-14T09:21:52;22.77;;;14.70;;
7667;SDS011;3876;42.204;24.686;2022-08-14T09:24:20;16.43;;;15.10;;
7667;SDS011;3876;42.204;24.686;2022-08-14T09:26:47;44.30;;;33.07;;
7667;SDS011;3876;42.204;24.686;2022-08-14T09:29:14;11.67;;;10.67;;
7667;SDS011;3876;42.204;24.686;2022-08-14T09:31:42;14.73;;;13.57;;
7667;SDS011;3876;42.204;24.686;2022-08-14T09:34:13;11.93;;;10.83;;
7667;SDS011;3876;42.204;24.686;2022-08-14T09:39:53;10.20;;;9.27;;
7667;SDS011;3876;42.204;24.686;2022-08-14T09:42:40;10.00;;;9.17;;
7667;SDS011;3876;42.204;24.686;2022-08-14T09:45:14;12.80;;;11.60;;
7667;SDS011;3876;42.204;24.686;2022-08-14T09:47:43;19.53;;;14.40;;
7667;SDS011;3876;42.204;24.686;2022-08-14T09:50:17;18.20;;;14.77;;
7667;SDS011;3876;42.204;24.686;2022-08-14T09:52:49;15.80;;;13.57;;
7667;SDS011;3876;42.204;24.686;2022-08-14T09:55:21;15.83;;;11.70;;
7667;SDS011;3876;42.204;24.686;2022-08-14T09:57:51;12.07;;;11.03;;
7667;SDS011;3876;42.204;24.686;2022-08-14T10:00:18;11.13;;;10.23;;
7667;SDS011;3876;42.204;24.686;2022-08-14T10:03:01;10.87;;;9.77;;
7667;SDS011;3876;42.204;24.686;2022-08-14T10:05:29;11.90;;;10.70;;
7667;SDS011;3876;42.204;24.686;2022-08-14T10:07:58;18.50;;;14.50;;
7667;SDS011;3876;42.204;24.686;2022-08-14T10:10:30;14.50;;;11.60;;
7667;SDS011;3876;42.204;24.686;2022-08-14T10:12:58;12.27;;;11.03;;
7667;SDS011;3876;42.204;24.686;2022-08-14T10:15:27;10.73;;;9.63;;
7667;SDS011;3876;42.204;24.686;2022-08-14T10:18:02;12.00;;;10.87;;
7667;SDS011;3876;42.204;24.686;2022-08-14T10:20:32;14.07;;;11.57;;
7667;SDS011;3876;42.204;24.686;2022-08-14T10:23:12;16.83;;;12.03;;
7667;SDS011;3876;42.204;24.686;2022-08-14T10:25:43;14.80;;;11.00;;
7667;SDS011;3876;42.204;24.686;2022-08-14T10:28:11;13.37;;;12.07;;
7667;SDS011;3876;42.204;24.686;2022-08-14T10:30:41;13.10;;;11.30;;
7667;SDS011;3876;42.204;24.686;2022-08-14T10:33:22;13.73;;;11.07;;
7667;SDS011;3876;42.204;24.686;2022-08-14T10:35:49;15.50;;;13.13;;
7667;SDS011;3876;42.204;24.686;2022-08-14T10:38:24;12.13;;;11.03;;
7667;SDS011;3876;42.204;24.686;2022-08-14T10:40:53;12.17;;;10.93;;
7667;SDS011;3876;42.204;24.686;2022-08-14T10:43:22;11.67;;;10.50;;
7667;SDS011;3876;42.204;24.686;2022-08-14T10:45:54;14.43;;;12.00;;
7667;SDS011;3876;42.204;24.686;2022-08-14T10:48:23;12.77;;;11.57;;
7667;SDS011;3876;42.204;24.686;2022-08-14T10:50:50;11.50;;;10.40;;
7667;SDS011;3876;42.204;24.686;2022-08-14T10:53:29;12.47;;;11.23;;
7667;SDS011;3876;42.204;24.686;2022-08-14T10:56:05;11.93;;;10.73;;
7667;SDS011;3876;42.204;24.686;2022-08-14T10:58:33;11.70;;;10.70;;
7667;SDS011;3876;42.204;24.686;2022-08-14T11:01:00;10.93;;;10.00;;
7667;SDS011;3876;42.204;24.686;2022-08-14T11:03:35;11.77;;;10.37;;
7667;SDS011;3876;42.204;24.686;2022-08-14T11:06:10;14.13;;;10.67;;
7667;SDS011;3876;42.204;24.686;2022-08-14T11:08:43;13.33;;;11.97;;
7667;SDS011;3876;42.204;24.686;2022-08-14T11:11:12;12.93;;;11.73;;
7667;SDS011;3876;42.204;24.686;2022-08-14T11:13:40;13.37;;;12.07;;
7667;SDS011;3876;42.204;24.686;2022-08-14T11:16:10;12.97;;;11.77;;
7667;SDS011;3876;42.204;24.686;2022-08-14T11:18:38;15.27;;;11.53;;
7667;SDS011;3876;42.204;24.686;2022-08-14T11:21:09;14.33;;;12.63;;
7667;SDS011;3876;42.204;24.686;2022-08-14T11:23:40;17.50;;;12.73;;
7667;SDS011;3876;42.204;24.686;2022-08-14T11:26:10;19.87;;;14.33;;
7667;SDS011;3876;42.204;24.686;2022-08-14T11:28:40;15.10;;;13.50;;
7667;SDS011;3876;42.204;24.686;2022-08-14T11:31:09;17.27;;;14.17;;
7667;SDS011;3876;42.204;24.686;2022-08-14T11:33:38;17.13;;;14.17;;
7667;SDS011;3876;42.204;24.686;2022-08-14T11:36:06;15.53;;;13.97;;
7667;SDS011;3876;42.204;24.686;2022-08-14T11:38:35;16.33;;;14.17;;
7667;SDS011;3876;42.204;24.686;2022-08-14T11:41:02;17.50;;;14.43;;
7667;SDS011;3876;42.204;24.686;2022-08-14T11:46:13;17.87;;;15.00;;
7667;SDS011;3876;42.204;24.686;2022-08-14T11:48:44;17.47;;;12.53;;
7667;SDS011;3876;42.204;24.686;2022-08-14T11:51:12;14.23;;;10.27;;
7667;SDS011;3876;42.204;24.686;2022-08-14T11:53:51;9.70;;;8.70;;
7667;SDS011;3876;42.204;24.686;2022-08-14T11:56:19;9.30;;;8.70;;
7667;SDS011;3876;42.204;24.686;2022-08-14T11:58:50;8.93;;;7.93;;
7667;SDS011;3876;42.204;24.686;2022-08-14T12:01:25;7.60;;;6.90;;
7667;SDS011;3876;42.204;24.686;2022-08-14T12:04:06;7.63;;;7.13;;
7667;SDS011;3876;42.204;24.686;2022-08-14T12:06:42;7.23;;;6.73;;
7667;SDS011;3876;42.204;24.686;2022-08-14T12:09:13;7.77;;;7.27;;
7667;SDS011;3876;42.204;24.686;2022-08-14T12:11:40;8.47;;;7.77;;
7667;SDS011;3876;42.204;24.686;2022-08-14T12:14:10;8.37;;;7.87;;
7667;SDS011;3876;42.204;24.686;2022-08-14T12:16:38;8.13;;;7.47;;
7667;SDS011;3876;42.204;24.686;2022-08-14T12:19:05;8.53;;;7.93;;
7667;SDS011;3876;42.204;24.686;2022-08-14T12:21:32;10.30;;;9.40;;
7667;SDS011;3876;42.204;24.686;2022-08-14T12:23:59;8.93;;;8.17;;
7667;SDS011;3876;42.204;24.686;2022-08-14T12:26:29;9.03;;;8.33;;
7667;SDS011;3876;42.204;24.686;2022-08-14T12:29:03;8.87;;;8.17;;
7667;SDS011;3876;42.204;24.686;2022-08-14T12:31:34;10.27;;;9.43;;
7667;SDS011;3876;42.204;24.686;2022-08-14T12:34:02;12.77;;;9.87;;
7667;SDS011;3876;42.204;24.686;2022-08-14T12:36:31;11.37;;;10.27;;
7667;SDS011;3876;42.204;24.686;2022-08-14T12:38:58;11.23;;;10.10;;
7667;SDS011;3876;42.204;24.686;2022-08-14T12:41:27;11.67;;;10.70;;
7667;SDS011;3876;42.204;24.686;2022-08-14T12:43:56;10.60;;;9.70;;
7667;SDS011;3876;42.204;24.686;2022-08-14T12:46:26;11.50;;;10.60;;
7667;SDS011;3876;42.204;24.686;2022-08-14T12:48:58;11.40;;;10.50;;
7667;SDS011;3876;42.204;24.686;2022-08-14T12:51:28;11.60;;;10.60;;
7667;SDS011;3876;42.204;24.686;2022-08-14T12:53:55;11.60;;;10.60;;
7667;SDS011;3876;42.204;24.686;2022-08-14T12:56:23;12.43;;;11.27;;
7667;SDS011;3876;42.204;24.686;2022-08-14T12:58:51;10.97;;;10.00;;
7667;SDS011;3876;42.204;24.686;2022-08-14T13:01:21;11.93;;;10.83;;
7667;SDS011;3876;42.204;24.686;2022-08-14T13:03:49;10.87;;;9.90;;
7667;SDS011;3876;42.204;24.686;2022-08-14T13:06:19;10.70;;;9.80;;
7667;SDS011;3876;42.204;24.686;2022-08-14T13:08:48;10.73;;;9.93;;
7667;SDS011;3876;42.204;24.686;2022-08-14T13:11:17;11.00;;;10.10;;
7667;SDS011;3876;42.204;24.686;2022-08-14T13:13:45;10.73;;;9.80;;
7667;SDS011;3876;42.204;24.686;2022-08-14T13:16:13;10.33;;;9.23;;
7667;SDS011;3876;42.204;24.686;2022-08-14T13:18:41;13.93;;;9.53;;
7667;SDS011;3876;42.204;24.686;2022-08-14T13:21:11;13.93;;;9.60;;
7667;SDS011;3876;42.204;24.686;2022-08-14T13:23:41;10.30;;;9.40;;
7667;SDS011;3876;42.204;24.686;2022-08-14T13:26:09;9.83;;;8.83;;
7667;SDS011;3876;42.204;24.686;2022-08-14T13:28:37;8.87;;;8.27;;
7667;SDS011;3876;42.204;24.686;2022-08-14T13:31:07;8.80;;;8.27;;
7667;SDS011;3876;42.204;24.686;2022-08-14T13:33:34;10.57;;;8.80;;
7667;SDS011;3876;42.204;24.686;2022-08-14T13:36:03;8.57;;;7.90;;
7667;SDS011;3876;42.204;24.686;2022-08-14T13:38:30;10.97;;;9.23;;
7667;SDS011;3876;42.204;24.686;2022-08-14T13:40:59;10.00;;;9.30;;
7667;SDS011;3876;42.204;24.686;2022-08-14T13:43:28;13.13;;;9.90;;
7667;SDS011;3876;42.204;24.686;2022-08-14T13:45:55;9.60;;;8.93;;
7667;SDS011;3876;42.204;24.686;2022-08-14T13:48:22;10.03;;;9.13;;
7667;SDS011;3876;42.204;24.686;2022-08-14T13:50:51;9.73;;;9.03;;
7667;SDS011;3876;42.204;24.686;2022-08-14T13:53:21;8.43;;;7.83;;
7667;SDS011;3876;42.204;24.686;2022-08-14T13:55:49;9.87;;;8.97;;
7667;SDS011;3876;42.204;24.686;2022-08-14T13:58:18;10.07;;;9.27;;
7667;SDS011;3876;42.204;24.686;2022-08-14T14:00:50;9.47;;;8.70;;
7667;SDS011;3876;42.204;24.686;2022-08-14T14:03:18;8.27;;;7.70;;
7667;SDS011;3876;42.204;24.686;2022-08-14T14:05:48;9.53;;;8.67;;
7667;SDS011;3876;42.204;24.686;2022-08-14T14:08:17;8.50;;;7.90;;
7667;SDS011;3876;42.204;24.686;2022-08-14T14:10:46;8.93;;;8.23;;
7667;SDS011;3876;42.204;24.686;2022-08-14T14:13:14;9.43;;;8.70;;
7667;SDS011;3876;42.204;24.686;2022-08-14T14:15:45;8.27;;;7.70;;
7667;SDS011;3876;42.204;24.686;2022-08-14T14:18:14;7.43;;;6.93;;
7667;SDS011;3876;42.204;24.686;2022-08-14T14:20:42;7.87;;;7.27;;
7667;SDS011;3876;42.204;24.686;2022-08-14T14:23:13;7.40;;;6.90;;
7667;SDS011;3876;42.204;24.686;2022-08-14T14:25:43;7.87;;;7.27;;
7667;SDS011;3876;42.204;24.686;2022-08-14T14:28:12;7.20;;;6.60;;
7667;SDS011;3876;42.204;24.686;2022-08-14T14:30:42;7.73;;;7.03;;
7667;SDS011;3876;42.204;24.686;2022-08-14T14:33:13;6.93;;;6.43;;
7667;SDS011;3876;42.204;24.686;2022-08-14T14:35:42;6.67;;;6.17;;
7667;SDS011;3876;42.204;24.686;2022-08-14T14:38:12;6.60;;;6.20;;
7667;SDS011;3876;42.204;24.686;2022-08-14T14:40:41;7.20;;;6.50;;
7667;SDS011;3876;42.204;24.686;2022-08-14T14:43:12;6.30;;;5.90;;
7667;SDS011;3876;42.204;24.686;2022-08-14T14:45:41;6.30;;;5.70;;
7667;SDS011;3876;42.204;24.686;2022-08-14T14:48:11;6.87;;;6.20;;
7667;SDS011;3876;42.204;24.686;2022-08-14T14:50:39;6.97;;;6.57;;
7667;SDS011;3876;42.204;24.686;2022-08-14T14:53:07;6.60;;;6.10;;
7667;SDS011;3876;42.204;24.686;2022-08-14T14:55:35;7.43;;;6.93;;
7667;SDS011;3876;42.204;24.686;2022-08-14T14:58:06;9.03;;;8.30;;
7667;SDS011;3876;42.204;24.686;2022-08-14T15:00:34;7.47;;;6.83;;
7667;SDS011;3876;42.204;24.686;2022-08-14T15:03:01;7.97;;;7.27;;
7667;SDS011;3876;42.204;24.686;2022-08-14T15:05:29;8.50;;;7.90;;
7667;SDS011;3876;42.204;24.686;2022-08-14T15:07:56;8.17;;;7.40;;